Adamsville, Pennsylvania
Current Conditions -  °F | °C
As of 11:17 AM on Tuesday 21 Oct 2014 (Local Time) from KGKJ Reporting Station
Light Rain Light Rain  
Wind Chill:   Ceiling: 1500
Heat Index:   Visibility: 3mi
Dew Point:   Wind: 6mph
Humidity: 90%   Direction: 300°WNW
Pressure: 29.88"   Gusts: NA
Location:  41.51°N, 80.37°W
Report Text: KGKJ 211517Z AUTO 30005KT 3SM -RA BR SCT007 BKN015 OVC043 09/08 A2988 RMK AO2 P0002 T00940078 TSNO
Loading
Personal Weather Stations






























Interactive Weather Map
Tropical Storm Tracking
New forecast layout! Learn more

10-Day Weather Forecast

Advertisements
Track Severe Weather on mobile